This demonstration page uses our WeatherBlox Daily Observations layout. Learn more.

38.80484, -77.04692

Hourly Observations for July 12, 2019

Temp ( °F °C ) Dew Point ( °F °C ) Humidity (%) Winds ( mph kmh ) Pressure ( in mb ) Visibility ( mi km ) Precip ( " mm )
12:07 am 00:07 Cloudy 73 22.8 70 21.1 90 90 SSW 7 11 29.8 1009 10 16.09344 0 0
12:52 am 00:52 Cloudy 73 22.8 70 21.1 90 90 W 7 11 29.83 1010 10 16.09344 0 0
1:17 am 01:17 Cloudy 72 22.2 69 20.6 91 91 WSW 8 13 29.83 1010 10 16.09344 0 0
1:52 am 01:52 Cloudy 72 22.2 70 21.1 94 94 SW 5 7 29.8 1009 10 16.09344 0 0
2:52 am 02:52 Cloudy 73 22.8 70 21.1 90 90 SW 6 9 29.77 1008 10 16.09344 0 0
3:52 am 03:52 Cloudy 73 22.8 70 21.1 90 90 WSW 7 11 29.77 1008 10 16.09344 0 0
4:52 am 04:52 Mostly Cloudy 73 22.8 69 20.6 87 87 W 3 6 29.77 1008 10 16.09344 0 0
5:19 am 05:19 Mostly Cloudy 72 22.2 69 20.6 91 91 W 3 6 29.8 1009 10 16.09344 0 0
5:52 am 05:52 Partly Cloudy 72 22.2 69 20.6 91 91 W 3 6 29.8 1009 10 16.09344 0 0
6:52 am 06:52 Partly Cloudy 73 22.8 69 20.6 87 87 W 3 6 29.8 1009 10 16.09344 0 0
7:52 am 07:52 Partly Cloudy 77 25 69 20.6 77 77 WNW 8 13 29.83 1010 10 16.09344 0 0
8:52 am 08:52 Partly Cloudy 79 26.1 69 20.6 72 72 W 7 11 29.83 1010 10 16.09344 0 0
9:52 am 09:52 Mostly Sunny 82 27.8 69 20.6 65 65 WNW 12 19 29.83 1010 10 16.09344 0 0
10:52 am 10:52 Mostly Sunny 83 28.3 70 21.1 65 65 N 13 20 29.83 1010 10 16.09344 0 0
11:52 am 11:52 Mostly Sunny 87 30.6 71 21.7 59 59 NNE 6 9 29.83 1010 10 16.09344 0 0
12:52 pm 12:52 Partly Cloudy 87 30.6 69 20.6 55 55 NW 9 15 29.83 1010 10 16.09344 0 0
1:52 pm 13:52 Mostly Cloudy 88 31.1 70 21.1 55 55 NNW 12 19 29.83 1010 10 16.09344 0 0
2:52 pm 14:52 Partly Cloudy 89 31.7 69 20.6 52 52 NNW 12 19 29.8 1009 10 16.09344 0 0
3:52 pm 15:52 Partly Cloudy 88 31.1 68 20 52 52 N 8 13 29.8 1009 10 16.09344 0 0
4:52 pm 16:52 Partly Cloudy 90 32.2 69 20.6 50 50 NNW 8 13 29.8 1009 10 16.09344 0 0
5:52 pm 17:52 Partly Cloudy 89 31.7 67 19.4 48 48 NNW 12 19 29.8 1009 10 16.09344 0 0
6:36 pm 18:36 Partly Cloudy with Nearby Thunderstorms 88 31.1 66 18.9 48 48 NNW 12 19 29.83 1010 10 16.09344 0 0
6:52 pm 18:52 Partly Cloudy with Nearby Thunderstorms 88 31.1 66 18.9 48 48 NW 13 20 29.8 1009 10 16.09344 0 0
7:02 pm 19:02 Partly Cloudy 88 31.1 67 19.4 50 50 NNW 10 17 29.83 1010 10 16.09344 0 0
7:52 pm 19:52 Partly Cloudy 86 30 66 18.9 51 51 NW 7 11 29.83 1010 10 16.09344 0 0
8:52 pm 20:52 Mostly Clear 85 29.4 65 18.3 51 51 NNW 8 13 29.85 1011 10 16.09344 0 0
9:52 pm 21:52 Mostly Clear 84 28.9 63 17.2 49 49 WNW 5 7 29.88 1012 10 16.09344 0 0
10:52 pm 22:52 Mostly Clear 81 27.2 65 18.3 58 58 NNW 6 9 29.88 1012 10 16.09344 0 0
11:52 pm 23:52 Mostly Clear 79 26.1 67 19.4 67 67 NNW 8 13 29.88 1012 10 16.09344 0 0

Powered by AerisWeather